createdAt,value
2019-03-15T00:04:20.594Z,66.85
2019-03-15T00:09:23.239Z,66.94
2019-03-15T00:14:24.790Z,66.89
2019-03-15T00:19:26.328Z,66.92
2019-03-15T00:24:28.155Z,66.48
2019-03-15T00:29:29.749Z,66.43
2019-03-15T00:34:31.556Z,65.93
2019-03-15T00:39:33.159Z,65.74
2019-03-15T00:44:34.724Z,66.10
2019-03-15T00:49:36.367Z,66.47
2019-03-15T00:54:38.005Z,66.52
2019-03-15T00:59:39.595Z,66.78
2019-03-15T01:04:41.155Z,67.00
2019-03-15T01:09:42.713Z,67.81
2019-03-15T01:14:44.259Z,68.72
2019-03-15T01:19:45.826Z,67.72
2019-03-15T01:24:47.635Z,68.22
2019-03-15T01:29:49.184Z,69.06
2019-03-15T01:34:50.809Z,70.19
2019-03-15T01:39:55.015Z,70.69
2019-03-15T01:44:56.570Z,70.88
2019-03-15T01:49:58.622Z,70.92
2019-03-15T01:55:00.396Z,71.26
2019-03-15T02:00:06.198Z,70.97
2019-03-15T02:05:08.157Z,70.54
2019-03-15T02:10:10.996Z,71.11
2019-03-15T02:15:12.727Z,71.95
2019-03-15T02:20:14.371Z,72.19
2019-03-15T02:25:15.989Z,71.99
2019-03-15T02:30:17.542Z,72.41
2019-03-15T02:35:20.003Z,71.71
2019-03-15T02:40:21.954Z,71.63
2019-03-15T02:45:23.505Z,71.67
2019-03-15T02:50:25.083Z,71.91
2019-03-15T02:55:26.632Z,74.99
2019-03-15T03:00:28.181Z,74.83
2019-03-15T03:05:29.836Z,75.93
2019-03-15T03:10:31.400Z,77.08
2019-03-15T03:15:32.968Z,77.16
2019-03-15T03:20:34.793Z,78.10
2019-03-15T03:25:36.574Z,79.21
2019-03-15T03:30:38.210Z,79.89
2019-03-15T03:35:39.782Z,80.55
2019-03-15T03:40:41.324Z,80.50
2019-03-15T03:45:44.943Z,81.14
2019-03-15T03:50:46.585Z,80.99
2019-03-15T03:55:48.336Z,80.86
2019-03-15T04:00:50.194Z,81.14
2019-03-15T04:05:51.952Z,81.60
2019-03-15T04:10:53.495Z,81.85
2019-03-15T04:15:55.150Z,81.94
2019-03-15T04:20:57.063Z,81.36
2019-03-15T04:26:00.282Z,80.94
2019-03-15T04:31:01.853Z,80.34
2019-03-15T04:36:03.378Z,80.27
2019-03-15T04:41:04.928Z,80.76
2019-03-15T04:46:06.515Z,81.13
2019-03-15T04:51:08.100Z,81.49
2019-03-15T04:56:09.662Z,81.05
2019-03-15T05:01:12.315Z,81.20
2019-03-15T05:06:13.887Z,81.47
2019-03-15T05:11:15.448Z,81.83
2019-03-15T05:16:17.061Z,81.31
2019-03-15T05:21:18.611Z,81.74
2019-03-15T05:26:20.278Z,81.00
2019-03-15T05:31:21.835Z,81.30
2019-03-15T05:36:23.394Z,82.19
2019-03-15T05:41:25.060Z,82.45
2019-03-15T05:46:26.709Z,82.21
2019-03-15T05:51:28.267Z,82.46
2019-03-15T05:56:29.930Z,82.47
2019-03-15T06:01:34.095Z,82.07
2019-03-15T06:06:36.321Z,82.44
2019-03-15T06:11:37.888Z,82.21
2019-03-15T06:16:39.456Z,82.38
2019-03-15T06:21:41.041Z,82.41
2019-03-15T06:26:42.739Z,82.83
2019-03-15T06:31:44.300Z,83.20
2019-03-15T06:36:45.869Z,83.84
2019-03-15T06:41:47.427Z,84.01
2019-03-15T06:46:49.005Z,82.67
2019-03-15T06:51:50.599Z,82.40
2019-03-15T06:56:52.150Z,82.25
2019-03-15T07:01:53.735Z,82.09
2019-03-15T07:06:55.304Z,81.39
2019-03-15T07:12:08.826Z,81.43
2019-03-15T07:17:00.443Z,80.68
2019-03-15T07:22:02.143Z,80.08
2019-03-15T07:27:12.852Z,78.65
2019-03-15T07:32:08.716Z,77.88
2019-03-15T07:37:10.286Z,76.27
2019-03-15T07:42:11.833Z,75.02
2019-03-15T07:47:13.754Z,73.71
2019-03-15T07:52:15.316Z,74.00
2019-03-15T07:57:16.868Z,70.32
2019-03-15T08:02:19.521Z,70.30
2019-03-15T08:07:21.119Z,70.93
2019-03-15T08:12:22.673Z,71.40
2019-03-15T08:17:25.407Z,69.74
2019-03-15T08:22:26.963Z,71.08
2019-03-15T08:27:28.644Z,69.91
2019-03-15T08:32:30.198Z,68.65
2019-03-15T08:37:31.742Z,69.29
2019-03-15T08:42:34.636Z,69.04
2019-03-15T08:47:36.676Z,66.01
2019-03-15T08:52:38.335Z,67.34
2019-03-15T08:57:41.878Z,65.01
2019-03-15T09:02:43.529Z,65.02
2019-03-15T09:07:46.315Z,65.32
2019-03-15T09:12:47.888Z,59.90
2019-03-15T09:17:49.657Z,59.82
2019-03-15T09:22:51.361Z,61.57
2019-03-15T09:27:52.964Z,62.96
2019-03-15T09:32:54.505Z,63.30
2019-03-15T09:37:56.055Z,62.15
2019-03-15T09:42:59.889Z,61.51
2019-03-15T09:48:01.052Z,64.13
2019-03-15T09:53:05.798Z,67.37
2019-03-15T09:58:06.340Z,70.22
2019-03-15T10:03:21.179Z,67.11
2019-03-15T10:08:11.423Z,67.77
2019-03-15T10:13:12.983Z,69.02
2019-03-15T10:18:14.532Z,68.07
2019-03-15T10:23:16.123Z,68.44
2019-03-15T10:28:17.756Z,68.58
2019-03-15T10:33:19.324Z,67.94
2019-03-15T10:38:20.867Z,68.97
2019-03-15T10:43:22.404Z,69.64
2019-03-15T10:48:25.485Z,70.04
2019-03-15T10:53:27.409Z,70.84
2019-03-15T10:58:29.006Z,70.32
2019-03-15T11:03:30.663Z,70.57
2019-03-15T11:08:32.267Z,69.35
2019-03-15T11:13:33.833Z,68.44
2019-03-15T11:18:35.422Z,69.50
2019-03-15T11:23:36.973Z,69.00
2019-03-15T11:28:38.618Z,68.66
2019-03-15T11:33:40.259Z,69.98
2019-03-15T11:38:41.825Z,68.09
2019-03-15T11:43:43.382Z,67.78
2019-03-15T11:48:44.928Z,67.61
2019-03-15T11:53:46.492Z,68.68
2019-03-15T11:58:48.103Z,66.15
2019-03-15T12:03:53.225Z,66.96
2019-03-15T12:08:53.145Z,65.07
2019-03-15T12:13:54.708Z,63.37
2019-03-15T12:18:56.359Z,61.90
2019-03-15T12:23:57.919Z,61.92
2019-03-15T12:28:59.594Z,61.60
2019-03-15T12:34:01.131Z,62.22
2019-03-15T12:39:05.209Z,61.87
2019-03-15T12:44:06.869Z,62.31
2019-03-15T12:49:08.421Z,60.18
2019-03-15T12:54:09.989Z,61.54
2019-03-15T12:59:11.641Z,59.66
2019-03-15T13:04:13.187Z,58.90
2019-03-15T13:09:14.785Z,58.07
2019-03-15T13:14:16.337Z,58.78
2019-03-15T13:19:17.888Z,60.42
2019-03-15T13:24:19.436Z,57.94
2019-03-15T13:29:21.196Z,54.58
2019-03-15T13:34:22.764Z,53.73
2019-03-15T13:39:24.324Z,55.27
2019-03-15T13:44:26.336Z,55.47
2019-03-15T13:49:28.148Z,55.59
2019-03-15T13:54:29.763Z,55.33
2019-03-15T13:59:31.547Z,55.86
2019-03-15T14:04:33.093Z,55.33
2019-03-15T14:09:34.717Z,53.80
2019-03-15T14:14:36.377Z,53.46
2019-03-15T14:19:37.928Z,53.03
2019-03-15T14:24:39.518Z,49.82
2019-03-15T14:29:41.186Z,51.35
2019-03-15T14:34:42.740Z,51.33
2019-03-15T14:39:44.334Z,47.85
2019-03-15T14:44:46.114Z,48.58
2019-03-15T14:49:47.928Z,51.38
2019-03-15T14:54:49.469Z,50.68
2019-03-15T14:59:51.114Z,49.77
2019-03-15T15:04:52.656Z,52.13
2019-03-15T15:09:54.236Z,50.77
2019-03-15T15:14:57.617Z,51.73
2019-03-15T15:19:59.266Z,50.74
2019-03-15T15:25:00.812Z,50.77
2019-03-15T15:30:08.670Z,49.08
2019-03-15T15:35:11.570Z,50.66
2019-03-15T15:40:18.605Z,49.59
2019-03-15T15:45:20.553Z,50.22
2019-03-15T15:50:22.220Z,50.37
2019-03-15T15:55:23.813Z,51.07
2019-03-15T16:00:25.896Z,51.50
2019-03-15T16:05:27.504Z,51.73
2019-03-15T16:10:29.121Z,52.25
2019-03-15T16:15:30.872Z,51.95
2019-03-15T16:20:32.436Z,51.95
2019-03-15T16:25:34.201Z,54.42
2019-03-15T16:30:37.339Z,56.79
2019-03-15T16:35:38.955Z,56.40
2019-03-15T16:40:40.526Z,57.17
2019-03-15T16:45:42.181Z,57.96
2019-03-15T16:50:43.734Z,58.65
2019-03-15T16:55:45.302Z,58.49
2019-03-15T17:00:46.880Z,59.27
2019-03-15T17:05:48.560Z,59.67
2019-03-15T17:10:51.310Z,59.99
2019-03-15T17:15:52.890Z,60.40
2019-03-15T17:20:54.518Z,60.34
2019-03-15T17:25:56.214Z,60.83
2019-03-15T17:31:09.064Z,60.43
2019-03-15T17:36:01.363Z,60.97
2019-03-15T17:41:03.019Z,61.14
2019-03-15T17:46:04.769Z,60.94
2019-03-15T17:51:06.323Z,61.29
2019-03-15T17:56:07.980Z,61.07
2019-03-15T18:01:09.742Z,61.20
2019-03-15T18:06:11.346Z,61.46
2019-03-15T18:11:13.060Z,61.53
2019-03-15T18:16:14.608Z,61.55
2019-03-15T18:21:16.265Z,61.01
2019-03-15T18:26:19.025Z,61.70
2019-03-15T18:31:20.675Z,61.98
2019-03-15T18:36:22.274Z,61.72
2019-03-15T18:41:23.843Z,61.17
2019-03-15T18:46:25.407Z,61.06
2019-03-15T18:51:26.955Z,60.68
2019-03-15T18:56:28.509Z,60.31
2019-03-15T19:01:30.070Z,59.94
2019-03-15T19:06:32.668Z,60.13
2019-03-15T19:11:35.300Z,59.55
2019-03-15T19:16:37.064Z,59.82
2019-03-15T19:21:38.977Z,59.58
2019-03-15T19:26:40.524Z,59.67
2019-03-15T19:31:42.141Z,60.00
2019-03-15T19:36:43.714Z,60.68
2019-03-15T19:41:45.305Z,61.84
2019-03-15T19:46:46.900Z,63.19
2019-03-15T19:51:48.452Z,64.03
2019-03-15T19:56:51.154Z,66.04
2019-03-15T20:01:52.709Z,67.22
2019-03-15T20:06:54.268Z,68.30
2019-03-15T20:11:55.873Z,68.33
2019-03-15T20:22:35.584Z,68.81
2019-03-15T20:27:37.212Z,69.55
2019-03-15T20:32:39.160Z,69.03
2019-03-15T20:37:40.874Z,69.25
2019-03-15T20:42:42.747Z,69.47
2019-03-15T20:47:44.359Z,69.65
2019-03-15T20:52:45.948Z,69.84
2019-03-15T20:57:47.605Z,69.09
2019-03-15T21:02:49.218Z,68.94
2019-03-15T21:07:51.876Z,69.01
2019-03-15T21:12:53.577Z,69.28
2019-03-15T21:17:55.201Z,69.26
2019-03-15T21:22:56.756Z,68.58
2019-03-15T21:27:58.341Z,68.21
2019-03-15T21:32:59.954Z,68.51
2019-03-15T21:38:01.597Z,69.05
2019-03-15T21:43:03.455Z,69.01
2019-03-15T21:48:05.252Z,68.53
2019-03-15T21:53:07.104Z,69.25
2019-03-15T21:58:08.667Z,69.57
2019-03-15T22:03:10.222Z,71.95
2019-03-15T22:08:11.776Z,73.98
2019-03-15T22:13:13.327Z,76.41
2019-03-15T22:18:14.935Z,77.51
2019-03-15T22:23:16.517Z,78.21
2019-03-15T22:28:18.108Z,78.84
2019-03-15T22:33:19.770Z,78.35
2019-03-15T22:38:26.638Z,78.94
2019-03-15T22:43:24.780Z,78.25
2019-03-15T22:48:26.356Z,78.80
2019-03-15T22:53:27.980Z,78.79
2019-03-15T22:58:29.547Z,80.07
2019-03-15T23:03:31.191Z,80.11
2019-03-15T23:08:32.747Z,80.61
2019-03-15T23:13:34.392Z,81.51
2019-03-15T23:18:35.988Z,82.81
2019-03-15T23:23:37.588Z,83.60
2019-03-15T23:28:39.196Z,83.82
2019-03-15T23:33:41.375Z,84.30
2019-03-15T23:38:43.121Z,84.71
2019-03-15T23:43:44.680Z,85.56
2019-03-15T23:48:46.212Z,83.94
2019-03-15T23:53:47.977Z,84.13
2019-03-15T23:58:49.560Z,83.40
